sensor_id;sensor_type;location;lat;lon;timestamp;temperature;humidity
5697;DHT22;2873;50.966;7.210;2022-10-28T00:01:14;18.00;99.90
5697;DHT22;2873;50.966;7.210;2022-10-28T00:03:42;18.00;99.90
5697;DHT22;2873;50.966;7.210;2022-10-28T00:06:10;18.00;99.90
5697;DHT22;2873;50.966;7.210;2022-10-28T00:08:36;18.00;99.90
5697;DHT22;2873;50.966;7.210;2022-10-28T00:11:07;18.00;99.90
5697;DHT22;2873;50.966;7.210;2022-10-28T00:13:34;18.00;99.90
5697;DHT22;2873;50.966;7.210;2022-10-28T00:16:20;18.10;99.90
5697;DHT22;2873;50.966;7.210;2022-10-28T00:18:47;18.10;99.90
5697;DHT22;2873;50.966;7.210;2022-10-28T00:21:15;18.10;99.90
5697;DHT22;2873;50.966;7.210;2022-10-28T00:23:41;18.10;99.90
5697;DHT22;2873;50.966;7.210;2022-10-28T00:26:12;18.40;99.90
5697;DHT22;2873;50.966;7.210;2022-10-28T00:28:50;18.10;99.90
5697;DHT22;2873;50.966;7.210;2022-10-28T00:31:18;18.10;99.90
5697;DHT22;2873;50.966;7.210;2022-10-28T00:33:44;18.20;99.90
5697;DHT22;2873;50.966;7.210;2022-10-28T00:38:44;18.20;99.90
5697;DHT22;2873;50.966;7.210;2022-10-28T00:41:12;18.20;99.90
5697;DHT22;2873;50.966;7.210;2022-10-28T00:43:42;18.30;99.90
5697;DHT22;2873;50.966;7.210;2022-10-28T00:46:36;18.30;99.90
5697;DHT22;2873;50.966;7.210;2022-10-28T00:49:16;18.30;99.90
5697;DHT22;2873;50.966;7.210;2022-10-28T00:51:43;18.30;99.90
5697;DHT22;2873;50.966;7.210;2022-10-28T00:54:10;18.50;99.90
5697;DHT22;2873;50.966;7.210;2022-10-28T00:56:39;18.40;99.90
5697;DHT22;2873;50.966;7.210;2022-10-28T00:59:10;18.50;99.90
5697;DHT22;2873;50.966;7.210;2022-10-28T01:01:37;18.40;99.90
5697;DHT22;2873;50.966;7.210;2022-10-28T01:04:03;18.50;99.90
5697;DHT22;2873;50.966;7.210;2022-10-28T01:06:29;18.50;99.90
5697;DHT22;2873;50.966;7.210;2022-10-28T01:08:54;18.60;99.90
5697;DHT22;2873;50.966;7.210;2022-10-28T01:11:43;18.70;99.90
5697;DHT22;2873;50.966;7.210;2022-10-28T01:14:44;18.70;99.90
5697;DHT22;2873;50.966;7.210;2022-10-28T01:22:37;18.80;99.90
5697;DHT22;2873;50.966;7.210;2022-10-28T01:33:35;18.80;99.90
5697;DHT22;2873;50.966;7.210;2022-10-28T01:36:12;18.90;99.90
5697;DHT22;2873;50.966;7.210;2022-10-28T01:38:56;18.90;99.90
5697;DHT22;2873;50.966;7.210;2022-10-28T01:41:36;18.90;99.90
5697;DHT22;2873;50.966;7.210;2022-10-28T01:44:06;19.00;99.90
5697;DHT22;2873;50.966;7.210;2022-10-28T01:46:54;19.00;99.90
5697;DHT22;2873;50.966;7.210;2022-10-28T01:51:56;19.00;99.90
5697;DHT22;2873;50.966;7.210;2022-10-28T01:54:24;19.00;99.90
5697;DHT22;2873;50.966;7.210;2022-10-28T01:56:52;19.00;99.90
5697;DHT22;2873;50.966;7.210;2022-10-28T01:59:22;19.10;99.90
5697;DHT22;2873;50.966;7.210;2022-10-28T02:01:49;19.00;99.90
5697;DHT22;2873;50.966;7.210;2022-10-28T02:04:15;19.10;99.90
5697;DHT22;2873;50.966;7.210;2022-10-28T02:06:42;19.10;99.90
5697;DHT22;2873;50.966;7.210;2022-10-28T02:09:24;19.20;99.90
5697;DHT22;2873;50.966;7.210;2022-10-28T02:11:59;19.20;99.90
5697;DHT22;2873;50.966;7.210;2022-10-28T02:19:53;19.30;99.90
5697;DHT22;2873;50.966;7.210;2022-10-28T02:22:31;19.30;99.90
5697;DHT22;2873;50.966;7.210;2022-10-28T02:25:20;19.40;99.90
5697;DHT22;2873;50.966;7.210;2022-10-28T02:28:06;19.40;99.90
5697;DHT22;2873;50.966;7.210;2022-10-28T02:30:53;19.40;99.90
5697;DHT22;2873;50.966;7.210;2022-10-28T02:33:28;19.30;99.90
5697;DHT22;2873;50.966;7.210;2022-10-28T02:35:59;19.40;99.90
5697;DHT22;2873;50.966;7.210;2022-10-28T02:38:38;19.40;99.90
5697;DHT22;2873;50.966;7.210;2022-10-28T02:41:18;19.40;99.90
5697;DHT22;2873;50.966;7.210;2022-10-28T02:43:45;19.40;99.90
5697;DHT22;2873;50.966;7.210;2022-10-28T02:46:13;19.50;99.90
5697;DHT22;2873;50.966;7.210;2022-10-28T02:48:46;19.50;99.90
5697;DHT22;2873;50.966;7.210;2022-10-28T02:51:16;19.60;99.90
5697;DHT22;2873;50.966;7.210;2022-10-28T02:54:07;19.50;99.90
5697;DHT22;2873;50.966;7.210;2022-10-28T02:56:38;19.40;99.90
5697;DHT22;2873;50.966;7.210;2022-10-28T02:59:09;19.20;99.90
5697;DHT22;2873;50.966;7.210;2022-10-28T03:01:35;19.40;99.90
5697;DHT22;2873;50.966;7.210;2022-10-28T03:04:01;19.40;99.90
5697;DHT22;2873;50.966;7.210;2022-10-28T03:06:27;19.30;99.90
5697;DHT22;2873;50.966;7.210;2022-10-28T03:08:53;19.30;99.90
5697;DHT22;2873;50.966;7.210;2022-10-28T03:11:18;19.30;99.90
5697;DHT22;2873;50.966;7.210;2022-10-28T03:13:44;19.30;99.90
5697;DHT22;2873;50.966;7.210;2022-10-28T03:16:10;19.30;99.90
5697;DHT22;2873;50.966;7.210;2022-10-28T03:18:35;19.20;99.90
5697;DHT22;2873;50.966;7.210;2022-10-28T03:21:01;19.10;99.90
5697;DHT22;2873;50.966;7.210;2022-10-28T03:23:26;19.00;99.90
5697;DHT22;2873;50.966;7.210;2022-10-28T03:25:52;19.00;99.90
5697;DHT22;2873;50.966;7.210;2022-10-28T03:28:17;18.90;99.90
5697;DHT22;2873;50.966;7.210;2022-10-28T03:30:43;19.10;99.90
5697;DHT22;2873;50.966;7.210;2022-10-28T03:33:09;18.90;99.90
5697;DHT22;2873;50.966;7.210;2022-10-28T03:35:34;18.90;99.90
5697;DHT22;2873;50.966;7.210;2022-10-28T03:38:00;18.90;99.90
5697;DHT22;2873;50.966;7.210;2022-10-28T03:40:26;18.80;99.90
5697;DHT22;2873;50.966;7.210;2022-10-28T03:42:51;18.80;99.90
5697;DHT22;2873;50.966;7.210;2022-10-28T03:45:17;18.80;99.90
5697;DHT22;2873;50.966;7.210;2022-10-28T03:47:42;18.70;99.90
5697;DHT22;2873;50.966;7.210;2022-10-28T03:50:08;18.70;99.90
5697;DHT22;2873;50.966;7.210;2022-10-28T03:52:34;18.80;99.90
5697;DHT22;2873;50.966;7.210;2022-10-28T03:54:59;18.80;99.90
5697;DHT22;2873;50.966;7.210;2022-10-28T03:57:25;18.80;99.90
5697;DHT22;2873;50.966;7.210;2022-10-28T03:59:53;18.90;99.90
5697;DHT22;2873;50.966;7.210;2022-10-28T04:02:19;18.90;99.90
5697;DHT22;2873;50.966;7.210;2022-10-28T04:04:44;18.80;99.90
5697;DHT22;2873;50.966;7.210;2022-10-28T04:07:10;18.90;99.90
5697;DHT22;2873;50.966;7.210;2022-10-28T04:09:35;18.70;99.90
5697;DHT22;2873;50.966;7.210;2022-10-28T04:12:01;18.70;99.90
5697;DHT22;2873;50.966;7.210;2022-10-28T04:14:26;18.70;99.90
5697;DHT22;2873;50.966;7.210;2022-10-28T04:16:52;18.70;99.90
5697;DHT22;2873;50.966;7.210;2022-10-28T04:19:17;18.70;99.90
5697;DHT22;2873;50.966;7.210;2022-10-28T04:21:43;18.50;99.90
5697;DHT22;2873;50.966;7.210;2022-10-28T04:24:08;18.70;99.90
5697;DHT22;2873;50.966;7.210;2022-10-28T04:26:34;18.60;99.90
5697;DHT22;2873;50.966;7.210;2022-10-28T04:28:59;18.60;99.90
5697;DHT22;2873;50.966;7.210;2022-10-28T04:31:25;18.60;99.90
5697;DHT22;2873;50.966;7.210;2022-10-28T04:33:50;18.70;99.90
5697;DHT22;2873;50.966;7.210;2022-10-28T04:36:16;18.70;99.90
5697;DHT22;2873;50.966;7.210;2022-10-28T04:38:41;18.80;99.90
5697;DHT22;2873;50.966;7.210;2022-10-28T04:41:11;18.70;99.90
5697;DHT22;2873;50.966;7.210;2022-10-28T04:43:37;18.80;99.90
5697;DHT22;2873;50.966;7.210;2022-10-28T04:46:03;18.70;99.90
5697;DHT22;2873;50.966;7.210;2022-10-28T04:48:31;18.60;99.90
5697;DHT22;2873;50.966;7.210;2022-10-28T04:50:56;18.60;99.90
5697;DHT22;2873;50.966;7.210;2022-10-28T04:53:22;18.60;99.90
5697;DHT22;2873;50.966;7.210;2022-10-28T04:55:47;18.70;99.90
5697;DHT22;2873;50.966;7.210;2022-10-28T04:58:13;18.60;99.90
5697;DHT22;2873;50.966;7.210;2022-10-28T05:00:38;18.70;99.90
5697;DHT22;2873;50.966;7.210;2022-10-28T05:03:04;18.70;99.90
5697;DHT22;2873;50.966;7.210;2022-10-28T05:05:29;18.70;99.90
5697;DHT22;2873;50.966;7.210;2022-10-28T05:07:55;18.80;99.90
5697;DHT22;2873;50.966;7.210;2022-10-28T05:10:21;18.80;99.90
5697;DHT22;2873;50.966;7.210;2022-10-28T05:12:46;18.80;99.90
5697;DHT22;2873;50.966;7.210;2022-10-28T05:15:13;18.70;99.90
5697;DHT22;2873;50.966;7.210;2022-10-28T05:17:40;18.50;99.90
5697;DHT22;2873;50.966;7.210;2022-10-28T05:20:08;18.30;99.90
5697;DHT22;2873;50.966;7.210;2022-10-28T05:22:33;18.20;99.90
5697;DHT22;2873;50.966;7.210;2022-10-28T05:24:59;18.10;99.90
5697;DHT22;2873;50.966;7.210;2022-10-28T05:27:25;18.20;99.90
5697;DHT22;2873;50.966;7.210;2022-10-28T05:29:50;18.30;99.90
5697;DHT22;2873;50.966;7.210;2022-10-28T05:32:16;18.10;99.90
5697;DHT22;2873;50.966;7.210;2022-10-28T05:34:41;18.10;99.90
5697;DHT22;2873;50.966;7.210;2022-10-28T05:37:07;18.30;99.90
5697;DHT22;2873;50.966;7.210;2022-10-28T05:39:32;18.00;99.90
5697;DHT22;2873;50.966;7.210;2022-10-28T05:41:58;18.00;99.90
5697;DHT22;2873;50.966;7.210;2022-10-28T05:44:23;18.00;99.90
5697;DHT22;2873;50.966;7.210;2022-10-28T05:46:49;17.90;99.90
5697;DHT22;2873;50.966;7.210;2022-10-28T05:49:14;17.90;99.90
5697;DHT22;2873;50.966;7.210;2022-10-28T05:51:47;18.10;99.90
5697;DHT22;2873;50.966;7.210;2022-10-28T05:54:13;18.00;99.90
5697;DHT22;2873;50.966;7.210;2022-10-28T05:56:38;18.00;99.90
5697;DHT22;2873;50.966;7.210;2022-10-28T05:59:04;18.00;99.90
5697;DHT22;2873;50.966;7.210;2022-10-28T06:01:30;18.00;99.90
5697;DHT22;2873;50.966;7.210;2022-10-28T06:03:55;18.00;99.90
5697;DHT22;2873;50.966;7.210;2022-10-28T06:06:21;18.10;99.90
5697;DHT22;2873;50.966;7.210;2022-10-28T06:08:47;18.00;99.90
5697;DHT22;2873;50.966;7.210;2022-10-28T06:11:12;18.00;99.90
5697;DHT22;2873;50.966;7.210;2022-10-28T06:13:38;17.90;99.90
5697;DHT22;2873;50.966;7.210;2022-10-28T06:16:03;18.00;99.90
5697;DHT22;2873;50.966;7.210;2022-10-28T06:18:29;18.00;99.90
5697;DHT22;2873;50.966;7.210;2022-10-28T06:20:58;18.00;99.90
5697;DHT22;2873;50.966;7.210;2022-10-28T06:23:25;18.10;99.90
5697;DHT22;2873;50.966;7.210;2022-10-28T06:25:58;18.10;99.90
5697;DHT22;2873;50.966;7.210;2022-10-28T06:28:24;18.10;99.90
5697;DHT22;2873;50.966;7.210;2022-10-28T06:30:50;18.20;99.90
5697;DHT22;2873;50.966;7.210;2022-10-28T06:33:15;18.30;99.90
5697;DHT22;2873;50.966;7.210;2022-10-28T06:35:41;18.20;99.90
5697;DHT22;2873;50.966;7.210;2022-10-28T06:38:06;18.30;99.90
5697;DHT22;2873;50.966;7.210;2022-10-28T06:40:32;18.30;99.90
5697;DHT22;2873;50.966;7.210;2022-10-28T06:43:03;18.20;99.90
5697;DHT22;2873;50.966;7.210;2022-10-28T06:45:31;18.20;99.90
5697;DHT22;2873;50.966;7.210;2022-10-28T06:47:58;18.10;99.90
5697;DHT22;2873;50.966;7.210;2022-10-28T06:50:25;18.10;99.90
5697;DHT22;2873;50.966;7.210;2022-10-28T06:52:51;18.20;99.90
5697;DHT22;2873;50.966;7.210;2022-10-28T06:55:17;18.30;99.90
5697;DHT22;2873;50.966;7.210;2022-10-28T06:57:42;18.20;99.90
5697;DHT22;2873;50.966;7.210;2022-10-28T07:00:08;18.30;99.90
5697;DHT22;2873;50.966;7.210;2022-10-28T07:02:34;18.40;99.90
5697;DHT22;2873;50.966;7.210;2022-10-28T07:04:59;18.40;99.90
5697;DHT22;2873;50.966;7.210;2022-10-28T07:07:25;18.30;99.90
5697;DHT22;2873;50.966;7.210;2022-10-28T07:09:50;18.30;99.90
5697;DHT22;2873;50.966;7.210;2022-10-28T07:12:16;18.30;99.90
5697;DHT22;2873;50.966;7.210;2022-10-28T07:14:41;18.30;99.90
5697;DHT22;2873;50.966;7.210;2022-10-28T07:17:07;18.50;99.90
5697;DHT22;2873;50.966;7.210;2022-10-28T07:19:32;18.40;99.90
5697;DHT22;2873;50.966;7.210;2022-10-28T07:21:58;18.40;99.90
5697;DHT22;2873;50.966;7.210;2022-10-28T07:24:23;18.50;99.90
5697;DHT22;2873;50.966;7.210;2022-10-28T07:26:49;18.40;99.90
5697;DHT22;2873;50.966;7.210;2022-10-28T07:29:15;18.50;99.90
5697;DHT22;2873;50.966;7.210;2022-10-28T07:31:41;18.50;99.90
5697;DHT22;2873;50.966;7.210;2022-10-28T07:34:06;18.70;99.90
5697;DHT22;2873;50.966;7.210;2022-10-28T07:36:32;18.60;99.90
5697;DHT22;2873;50.966;7.210;2022-10-28T07:38:57;18.60;99.90
5697;DHT22;2873;50.966;7.210;2022-10-28T07:41:23;18.70;99.90
5697;DHT22;2873;50.966;7.210;2022-10-28T07:43:49;18.70;99.90
5697;DHT22;2873;50.966;7.210;2022-10-28T07:46:16;18.70;99.90
5697;DHT22;2873;50.966;7.210;2022-10-28T07:48:41;18.80;99.90
5697;DHT22;2873;50.966;7.210;2022-10-28T07:51:10;18.80;99.90
5697;DHT22;2873;50.966;7.210;2022-10-28T07:53:36;19.00;99.90
5697;DHT22;2873;50.966;7.210;2022-10-28T07:56:04;19.20;99.90
5697;DHT22;2873;50.966;7.210;2022-10-28T07:58:30;19.10;99.90
5697;DHT22;2873;50.966;7.210;2022-10-28T08:01:05;19.20;99.90
5697;DHT22;2873;50.966;7.210;2022-10-28T08:03:31;19.40;99.90
5697;DHT22;2873;50.966;7.210;2022-10-28T08:06:03;19.40;99.90
5697;DHT22;2873;50.966;7.210;2022-10-28T08:08:29;19.50;99.90
5697;DHT22;2873;50.966;7.210;2022-10-28T08:10:55;19.60;99.90
5697;DHT22;2873;50.966;7.210;2022-10-28T08:13:20;19.60;99.90
5697;DHT22;2873;50.966;7.210;2022-10-28T08:15:54;19.80;99.90
5697;DHT22;2873;50.966;7.210;2022-10-28T08:18:21;19.90;99.90
5697;DHT22;2873;50.966;7.210;2022-10-28T08:20:47;19.90;99.90
5697;DHT22;2873;50.966;7.210;2022-10-28T08:23:13;19.90;99.90
5697;DHT22;2873;50.966;7.210;2022-10-28T08:25:47;20.00;99.90
5697;DHT22;2873;50.966;7.210;2022-10-28T08:28:13;20.10;99.90
5697;DHT22;2873;50.966;7.210;2022-10-28T08:30:38;20.10;99.90
5697;DHT22;2873;50.966;7.210;2022-10-28T08:33:04;20.20;99.90
5697;DHT22;2873;50.966;7.210;2022-10-28T08:35:30;20.20;99.90
5697;DHT22;2873;50.966;7.210;2022-10-28T08:37:55;20.20;99.90
5697;DHT22;2873;50.966;7.210;2022-10-28T08:40:33;20.10;99.90
5697;DHT22;2873;50.966;7.210;2022-10-28T08:49:23;20.30;99.90
5697;DHT22;2873;50.966;7.210;2022-10-28T08:52:15;20.10;99.90
5697;DHT22;2873;50.966;7.210;2022-10-28T08:57:38;20.30;99.90
5697;DHT22;2873;50.966;7.210;2022-10-28T09:00:06;20.50;99.90
5697;DHT22;2873;50.966;7.210;2022-10-28T09:03:13;20.50;99.90
5697;DHT22;2873;50.966;7.210;2022-10-28T09:05:42;20.70;99.90
5697;DHT22;2873;50.966;7.210;2022-10-28T09:08:49;21.00;99.90
5697;DHT22;2873;50.966;7.210;2022-10-28T09:14:16;21.90;99.90
5697;DHT22;2873;50.966;7.210;2022-10-28T09:16:51;22.40;99.90
5697;DHT22;2873;50.966;7.210;2022-10-28T09:19:44;23.20;99.90
5697;DHT22;2873;50.966;7.210;2022-10-28T09:22:21;24.10;99.90
5697;DHT22;2873;50.966;7.210;2022-10-28T09:24:57;24.60;99.90
5697;DHT22;2873;50.966;7.210;2022-10-28T09:30:05;24.60;99.90
5697;DHT22;2873;50.966;7.210;2022-10-28T09:32:50;24.60;99.90
5697;DHT22;2873;50.966;7.210;2022-10-28T09:35:23;25.30;99.90
5697;DHT22;2873;50.966;7.210;2022-10-28T09:37:55;25.70;99.90
5697;DHT22;2873;50.966;7.210;2022-10-28T09:40:25;25.60;99.90
5697;DHT22;2873;50.966;7.210;2022-10-28T09:43:09;26.20;99.90
5697;DHT22;2873;50.966;7.210;2022-10-28T09:45:43;26.90;99.90
5697;DHT22;2873;50.966;7.210;2022-10-28T09:48:32;27.50;99.90
5697;DHT22;2873;50.966;7.210;2022-10-28T09:50:58;27.50;99.90
5697;DHT22;2873;50.966;7.210;2022-10-28T09:56:21;27.60;99.90
5697;DHT22;2873;50.966;7.210;2022-10-28T09:58:47;27.60;99.90
5697;DHT22;2873;50.966;7.210;2022-10-28T10:01:14;27.80;99.90
5697;DHT22;2873;50.966;7.210;2022-10-28T10:03:41;28.00;99.90
5697;DHT22;2873;50.966;7.210;2022-10-28T10:06:14;28.70;99.90
5697;DHT22;2873;50.966;7.210;2022-10-28T10:08:41;29.10;99.90
5697;DHT22;2873;50.966;7.210;2022-10-28T10:13:57;29.80;99.90
5697;DHT22;2873;50.966;7.210;2022-10-28T10:19:09;30.40;99.90
5697;DHT22;2873;50.966;7.210;2022-10-28T10:21:49;30.10;99.90
5697;DHT22;2873;50.966;7.210;2022-10-28T10:24:30;30.40;99.90
5697;DHT22;2873;50.966;7.210;2022-10-28T10:27:19;30.30;99.90
5697;DHT22;2873;50.966;7.210;2022-10-28T10:29:46;30.40;99.90
5697;DHT22;2873;50.966;7.210;2022-10-28T10:34:53;30.40;99.90
5697;DHT22;2873;50.966;7.210;2022-10-28T10:37:21;31.20;99.90
5697;DHT22;2873;50.966;7.210;2022-10-28T10:42:43;30.20;99.90
5697;DHT22;2873;50.966;7.210;2022-10-28T10:47:48;30.40;99.90
5697;DHT22;2873;50.966;7.210;2022-10-28T10:52:49;30.60;99.90
5697;DHT22;2873;50.966;7.210;2022-10-28T10:55:22;30.50;99.90
5697;DHT22;2873;50.966;7.210;2022-10-28T10:57:48;29.90;99.90
5697;DHT22;2873;50.966;7.210;2022-10-28T11:00:16;30.00;99.90
5697;DHT22;2873;50.966;7.210;2022-10-28T11:02:45;29.60;99.90
5697;DHT22;2873;50.966;7.210;2022-10-28T11:05:19;29.80;99.90
5697;DHT22;2873;50.966;7.210;2022-10-28T11:07:48;29.60;99.90
5697;DHT22;2873;50.966;7.210;2022-10-28T11:10:29;29.70;99.90
5697;DHT22;2873;50.966;7.210;2022-10-28T11:13:03;29.40;99.90
5697;DHT22;2873;50.966;7.210;2022-10-28T11:15:32;29.40;99.90
5697;DHT22;2873;50.966;7.210;2022-10-28T11:18:03;29.30;99.90
5697;DHT22;2873;50.966;7.210;2022-10-28T11:23:22;29.40;99.90
5697;DHT22;2873;50.966;7.210;2022-10-28T11:25:53;30.70;99.90
5697;DHT22;2873;50.966;7.210;2022-10-28T11:42:19;35.30;99.90
5697;DHT22;2873;50.966;7.210;2022-10-28T11:44:54;35.20;99.90
5697;DHT22;2873;50.966;7.210;2022-10-28T11:53:13;35.70;99.90
5697;DHT22;2873;50.966;7.210;2022-10-28T12:04:16;36.20;99.90
5697;DHT22;2873;50.966;7.210;2022-10-28T12:12:22;36.00;98.90
5697;DHT22;2873;50.966;7.210;2022-10-28T12:17:30;34.80;98.90
5697;DHT22;2873;50.966;7.210;2022-10-28T12:20:10;33.90;98.60
5697;DHT22;2873;50.966;7.210;2022-10-28T12:22:50;34.20;99.10
5697;DHT22;2873;50.966;7.210;2022-10-28T12:25:24;34.60;98.80
5697;DHT22;2873;50.966;7.210;2022-10-28T12:27:54;34.70;99.10
5697;DHT22;2873;50.966;7.210;2022-10-28T12:30:42;35.10;98.70
5697;DHT22;2873;50.966;7.210;2022-10-28T12:33:21;35.60;98.50
5697;DHT22;2873;50.966;7.210;2022-10-28T12:38:39;36.10;97.50
5697;DHT22;2873;50.966;7.210;2022-10-28T12:41:20;35.60;96.70
5697;DHT22;2873;50.966;7.210;2022-10-28T12:43:58;35.40;96.80
5697;DHT22;2873;50.966;7.210;2022-10-28T12:46:45;35.50;97.00
5697;DHT22;2873;50.966;7.210;2022-10-28T12:54:54;35.00;96.10
5697;DHT22;2873;50.966;7.210;2022-10-28T12:57:22;34.70;96.20
5697;DHT22;2873;50.966;7.210;2022-10-28T13:00:02;33.60;97.00
5697;DHT22;2873;50.966;7.210;2022-10-28T13:02:46;33.50;97.40
5697;DHT22;2873;50.966;7.210;2022-10-28T13:05:22;32.10;97.20
5697;DHT22;2873;50.966;7.210;2022-10-28T13:08:01;32.00;98.50
5697;DHT22;2873;50.966;7.210;2022-10-28T13:10:45;31.50;98.40
5697;DHT22;2873;50.966;7.210;2022-10-28T13:26:25;30.60;99.70
5697;DHT22;2873;50.966;7.210;2022-10-28T13:28:55;30.60;99.90
5697;DHT22;2873;50.966;7.210;2022-10-28T13:31:21;30.30;99.90
5697;DHT22;2873;50.966;7.210;2022-10-28T13:33:54;30.00;99.90
5697;DHT22;2873;50.966;7.210;2022-10-28T13:36:31;29.90;99.90
5697;DHT22;2873;50.966;7.210;2022-10-28T13:39:03;29.40;99.90
5697;DHT22;2873;50.966;7.210;2022-10-28T13:44:20;29.20;99.90
5697;DHT22;2873;50.966;7.210;2022-10-28T13:47:03;29.30;99.90
5697;DHT22;2873;50.966;7.210;2022-10-28T13:52:17;29.50;99.90
5697;DHT22;2873;50.966;7.210;2022-10-28T14:00:03;29.10;99.90
5697;DHT22;2873;50.966;7.210;2022-10-28T14:02:40;29.10;99.90
5697;DHT22;2873;50.966;7.210;2022-10-28T14:05:12;28.90;99.90
5697;DHT22;2873;50.966;7.210;2022-10-28T14:07:56;28.50;99.90
5697;DHT22;2873;50.966;7.210;2022-10-28T14:10:25;28.70;99.90
5697;DHT22;2873;50.966;7.210;2022-10-28T14:13:18;28.50;99.90
5697;DHT22;2873;50.966;7.210;2022-10-28T14:15:45;28.00;99.90
5697;DHT22;2873;50.966;7.210;2022-10-28T14:20:40;27.70;99.90
5697;DHT22;2873;50.966;7.210;2022-10-28T14:41:58;26.70;99.90
5697;DHT22;2873;50.966;7.210;2022-10-28T14:47:35;26.20;99.90
5697;DHT22;2873;50.966;7.210;2022-10-28T14:50:25;26.10;99.90
5697;DHT22;2873;50.966;7.210;2022-10-28T14:52:53;26.20;99.90
5697;DHT22;2873;50.966;7.210;2022-10-28T14:55:29;26.20;99.90
5697;DHT22;2873;50.966;7.210;2022-10-28T14:58:21;26.10;99.90
5697;DHT22;2873;50.966;7.210;2022-10-28T15:03:31;26.00;99.90
5697;DHT22;2873;50.966;7.210;2022-10-28T15:06:35;25.70;99.90
5697;DHT22;2873;50.966;7.210;2022-10-28T15:08:53;25.70;99.90
5697;DHT22;2873;50.966;7.210;2022-10-28T15:11:20;25.70;99.90
5697;DHT22;2873;50.966;7.210;2022-10-28T15:13:50;25.80;99.90
5697;DHT22;2873;50.966;7.210;2022-10-28T15:16:21;25.60;99.90
5697;DHT22;2873;50.966;7.210;2022-10-28T15:18:49;25.50;99.90
5697;DHT22;2873;50.966;7.210;2022-10-28T15:21:18;25.40;99.90
5697;DHT22;2873;50.966;7.210;2022-10-28T15:23:56;25.20;99.90
5697;DHT22;2873;50.966;7.210;2022-10-28T15:26:22;25.10;99.90
5697;DHT22;2873;50.966;7.210;2022-10-28T15:28:47;25.00;99.90
5697;DHT22;2873;50.966;7.210;2022-10-28T15:31:15;25.00;99.90
5697;DHT22;2873;50.966;7.210;2022-10-28T15:33:41;24.80;99.90
5697;DHT22;2873;50.966;7.210;2022-10-28T15:36:23;24.80;99.90
5697;DHT22;2873;50.966;7.210;2022-10-28T15:39:06;24.90;99.90
5697;DHT22;2873;50.966;7.210;2022-10-28T15:44:41;24.70;99.90
5697;DHT22;2873;50.966;7.210;2022-10-28T15:47:31;24.70;99.90
5697;DHT22;2873;50.966;7.210;2022-10-28T15:50:04;24.50;99.90
5697;DHT22;2873;50.966;7.210;2022-10-28T15:52:35;24.40;99.90
5697;DHT22;2873;50.966;7.210;2022-10-28T15:57:49;24.10;99.90
5697;DHT22;2873;50.966;7.210;2022-10-28T16:02:55;23.90;99.90
5697;DHT22;2873;50.966;7.210;2022-10-28T16:08:02;23.70;99.90
5697;DHT22;2873;50.966;7.210;2022-10-28T16:10:35;23.60;99.90
5697;DHT22;2873;50.966;7.210;2022-10-28T16:13:02;23.60;99.90
5697;DHT22;2873;50.966;7.210;2022-10-28T16:15:29;23.60;99.90
5697;DHT22;2873;50.966;7.210;2022-10-28T16:17:55;23.60;99.90
5697;DHT22;2873;50.966;7.210;2022-10-28T16:20:23;23.60;99.90
5697;DHT22;2873;50.966;7.210;2022-10-28T16:22:51;23.40;99.90
5697;DHT22;2873;50.966;7.210;2022-10-28T16:25:18;23.40;99.90
5697;DHT22;2873;50.966;7.210;2022-10-28T16:27:45;23.40;99.90
5697;DHT22;2873;50.966;7.210;2022-10-28T16:30:11;23.40;99.90
5697;DHT22;2873;50.966;7.210;2022-10-28T16:32:39;23.40;99.90
5697;DHT22;2873;50.966;7.210;2022-10-28T16:35:22;23.20;99.90
5697;DHT22;2873;50.966;7.210;2022-10-28T16:37:49;23.20;99.90
5697;DHT22;2873;50.966;7.210;2022-10-28T16:40:15;23.00;99.90
5697;DHT22;2873;50.966;7.210;2022-10-28T16:42:41;23.00;99.90
5697;DHT22;2873;50.966;7.210;2022-10-28T16:45:13;23.00;99.90
5697;DHT22;2873;50.966;7.210;2022-10-28T16:47:39;23.00;99.90
5697;DHT22;2873;50.966;7.210;2022-10-28T16:50:05;22.90;99.90
5697;DHT22;2873;50.966;7.210;2022-10-28T16:52:31;23.00;99.90
5697;DHT22;2873;50.966;7.210;2022-10-28T16:54:57;23.00;99.90
5697;DHT22;2873;50.966;7.210;2022-10-28T16:57:23;23.20;99.90
5697;DHT22;2873;50.966;7.210;2022-10-28T16:59:48;23.00;99.90
5697;DHT22;2873;50.966;7.210;2022-10-28T17:02:27;23.00;99.90
5697;DHT22;2873;50.966;7.210;2022-10-28T17:04:54;23.00;99.90
5697;DHT22;2873;50.966;7.210;2022-10-28T17:07:20;22.90;99.90
5697;DHT22;2873;50.966;7.210;2022-10-28T17:09:45;22.90;99.90
5697;DHT22;2873;50.966;7.210;2022-10-28T17:12:13;23.00;99.90
5697;DHT22;2873;50.966;7.210;2022-10-28T17:14:39;22.80;99.90
5697;DHT22;2873;50.966;7.210;2022-10-28T17:17:04;22.80;99.90
5697;DHT22;2873;50.966;7.210;2022-10-28T17:19:30;22.70;99.90
5697;DHT22;2873;50.966;7.210;2022-10-28T17:21:55;22.70;99.90
5697;DHT22;2873;50.966;7.210;2022-10-28T17:24:21;22.70;99.90
5697;DHT22;2873;50.966;7.210;2022-10-28T17:26:47;22.70;99.90
5697;DHT22;2873;50.966;7.210;2022-10-28T17:29:13;22.70;99.90
5697;DHT22;2873;50.966;7.210;2022-10-28T17:31:39;22.40;99.90
5697;DHT22;2873;50.966;7.210;2022-10-28T17:34:05;22.40;99.90
5697;DHT22;2873;50.966;7.210;2022-10-28T17:36:30;22.30;99.90
5697;DHT22;2873;50.966;7.210;2022-10-28T17:38:57;22.30;99.90
5697;DHT22;2873;50.966;7.210;2022-10-28T17:41:23;22.20;99.90
5697;DHT22;2873;50.966;7.210;2022-10-28T17:43:51;22.30;99.90
5697;DHT22;2873;50.966;7.210;2022-10-28T17:46:17;22.20;99.90
5697;DHT22;2873;50.966;7.210;2022-10-28T17:48:43;22.20;99.90
5697;DHT22;2873;50.966;7.210;2022-10-28T17:51:09;22.30;99.90
5697;DHT22;2873;50.966;7.210;2022-10-28T17:53:35;22.20;99.90
5697;DHT22;2873;50.966;7.210;2022-10-28T17:56:03;22.20;99.90
5697;DHT22;2873;50.966;7.210;2022-10-28T17:58:29;22.20;99.90
5697;DHT22;2873;50.966;7.210;2022-10-28T18:01:00;22.20;99.90
5697;DHT22;2873;50.966;7.210;2022-10-28T18:03:26;22.10;99.90
5697;DHT22;2873;50.966;7.210;2022-10-28T18:05:52;22.00;99.90
5697;DHT22;2873;50.966;7.210;2022-10-28T18:08:18;22.00;99.90
5697;DHT22;2873;50.966;7.210;2022-10-28T18:10:56;21.90;99.90
5697;DHT22;2873;50.966;7.210;2022-10-28T18:13:25;21.80;99.90
5697;DHT22;2873;50.966;7.210;2022-10-28T18:15:51;21.80;99.90
5697;DHT22;2873;50.966;7.210;2022-10-28T18:18:17;21.70;99.90
5697;DHT22;2873;50.966;7.210;2022-10-28T18:20:43;21.60;99.90
5697;DHT22;2873;50.966;7.210;2022-10-28T18:23:08;21.60;99.90
5697;DHT22;2873;50.966;7.210;2022-10-28T18:25:34;21.50;99.90
5697;DHT22;2873;50.966;7.210;2022-10-28T18:27:59;21.60;99.90
5697;DHT22;2873;50.966;7.210;2022-10-28T18:30:25;21.50;99.90
5697;DHT22;2873;50.966;7.210;2022-10-28T18:32:51;21.50;99.90
5697;DHT22;2873;50.966;7.210;2022-10-28T18:35:16;21.40;99.90
5697;DHT22;2873;50.966;7.210;2022-10-28T18:37:42;21.40;99.90
5697;DHT22;2873;50.966;7.210;2022-10-28T18:40:08;21.50;99.90
5697;DHT22;2873;50.966;7.210;2022-10-28T18:42:33;21.50;99.90
5697;DHT22;2873;50.966;7.210;2022-10-28T18:44:59;21.50;99.90
5697;DHT22;2873;50.966;7.210;2022-10-28T18:47:25;21.60;99.90
5697;DHT22;2873;50.966;7.210;2022-10-28T18:49:50;21.40;99.90
5697;DHT22;2873;50.966;7.210;2022-10-28T18:52:16;21.50;99.90
5697;DHT22;2873;50.966;7.210;2022-10-28T18:54:41;21.50;99.90
5697;DHT22;2873;50.966;7.210;2022-10-28T18:57:07;21.50;99.90
5697;DHT22;2873;50.966;7.210;2022-10-28T18:59:33;21.60;99.90
5697;DHT22;2873;50.966;7.210;2022-10-28T19:01:58;21.50;99.90
5697;DHT22;2873;50.966;7.210;2022-10-28T19:04:24;21.50;99.90
5697;DHT22;2873;50.966;7.210;2022-10-28T19:06:49;21.50;99.90